createdAt,value
2023-05-05T00:02:21.480Z,8.74
2023-05-05T00:04:49.312Z,8.70
2023-05-05T00:07:17.132Z,8.66
2023-05-05T00:09:44.850Z,8.62
2023-05-05T00:12:12.670Z,8.58
2023-05-05T00:14:41.501Z,8.54
2023-05-05T00:17:09.609Z,8.51
2023-05-05T00:19:37.559Z,8.48
2023-05-05T00:22:05.369Z,8.46
2023-05-05T00:24:33.576Z,8.43
2023-05-05T00:27:02.396Z,8.40
2023-05-05T00:29:30.478Z,8.38
2023-05-05T00:31:58.275Z,8.34
2023-05-05T00:34:26.075Z,8.30
2023-05-05T00:36:54.143Z,8.26
2023-05-05T00:39:21.919Z,8.22
2023-05-05T00:41:49.871Z,8.19
2023-05-05T00:44:17.636Z,8.16
2023-05-05T00:46:45.840Z,8.14
2023-05-05T00:49:13.802Z,8.11
2023-05-05T00:51:42.463Z,8.09
2023-05-05T00:54:10.327Z,8.08
2023-05-05T00:56:38.121Z,8.07
2023-05-05T00:59:05.965Z,8.06
2023-05-05T01:01:33.982Z,8.05
2023-05-05T01:04:02.017Z,8.06
2023-05-05T01:07:04.003Z,8.06
2023-05-05T01:09:38.006Z,8.07
2023-05-05T01:12:23.753Z,8.07
2023-05-05T01:15:30.121Z,8.08
2023-05-05T01:18:11.828Z,8.09
2023-05-05T01:20:51.974Z,8.10
2023-05-05T01:24:01.207Z,8.10
2023-05-05T01:26:35.002Z,8.10
2023-05-05T01:29:40.549Z,8.09
2023-05-05T01:32:13.136Z,8.08
2023-05-05T01:34:48.297Z,8.06
2023-05-05T01:37:33.329Z,8.04
2023-05-05T01:40:06.899Z,8.02
2023-05-05T01:42:38.350Z,7.99
2023-05-05T01:45:09.594Z,7.97
2023-05-05T01:47:38.240Z,7.94
2023-05-05T01:50:08.640Z,7.92
2023-05-05T01:52:38.453Z,7.89
2023-05-05T01:55:08.579Z,7.87
2023-05-05T01:57:38.493Z,7.85
2023-05-05T02:00:08.826Z,7.81
2023-05-05T02:02:39.549Z,7.78
2023-05-05T02:05:07.932Z,7.76
2023-05-05T02:07:36.869Z,7.75
2023-05-05T02:10:07.083Z,7.72
2023-05-05T02:12:37.579Z,7.69
2023-05-05T02:15:06.785Z,7.68
2023-05-05T02:17:34.866Z,7.67
2023-05-05T02:20:04.731Z,7.67
2023-05-05T02:22:33.270Z,7.66
2023-05-05T02:25:01.186Z,7.67
2023-05-05T02:27:34.107Z,7.67
2023-05-05T02:30:11.303Z,7.67
2023-05-05T02:32:50.887Z,7.68
2023-05-05T02:35:23.065Z,7.69
2023-05-05T02:37:57.011Z,7.72
2023-05-05T02:40:28.114Z,7.73
2023-05-05T02:42:58.583Z,7.76
2023-05-05T02:45:28.555Z,7.78
2023-05-05T02:47:56.573Z,7.80
2023-05-05T02:50:24.410Z,7.81
2023-05-05T02:52:52.357Z,7.81
2023-05-05T02:55:20.525Z,7.82
2023-05-05T02:57:53.836Z,7.83
2023-05-05T03:00:39.910Z,7.84
2023-05-05T03:03:26.202Z,7.85
2023-05-05T03:05:58.175Z,7.87
2023-05-05T03:08:37.192Z,7.88
2023-05-05T03:11:08.235Z,7.90
2023-05-05T03:13:40.400Z,7.91
2023-05-05T03:16:09.380Z,7.93
2023-05-05T03:18:38.559Z,7.94
2023-05-05T03:21:10.148Z,7.95
2023-05-05T03:23:38.334Z,7.97
2023-05-05T03:26:06.197Z,7.99
2023-05-05T03:28:33.994Z,8.01
2023-05-05T03:31:03.655Z,8.02
2023-05-05T03:33:31.549Z,8.03
2023-05-05T03:35:59.377Z,8.05
2023-05-05T03:38:27.169Z,8.07
2023-05-05T03:40:56.211Z,8.08
2023-05-05T03:43:24.026Z,8.11
2023-05-05T03:45:51.810Z,8.14
2023-05-05T03:48:19.667Z,8.17
2023-05-05T03:50:48.897Z,8.21
2023-05-05T03:53:17.231Z,8.25
2023-05-05T03:55:45.096Z,8.29
2023-05-05T03:58:12.967Z,8.33
2023-05-05T04:00:40.833Z,8.38
2023-05-05T04:03:08.823Z,8.43
2023-05-05T04:05:36.980Z,8.49
2023-05-05T04:08:05.470Z,8.56
2023-05-05T04:10:33.724Z,8.63
2023-05-05T04:13:01.641Z,8.69
2023-05-05T04:15:29.974Z,8.77
2023-05-05T04:17:57.998Z,8.84
2023-05-05T04:20:26.217Z,8.92
2023-05-05T04:22:54.082Z,9.01
2023-05-05T04:25:21.843Z,9.09
2023-05-05T04:27:49.607Z,9.18
2023-05-05T04:30:17.390Z,9.25
2023-05-05T04:32:45.250Z,9.33
2023-05-05T04:35:13.212Z,9.41
2023-05-05T04:37:41.063Z,9.48
2023-05-05T04:40:10.645Z,9.56
2023-05-05T04:42:38.488Z,9.62
2023-05-05T04:45:07.307Z,9.69
2023-05-05T04:47:39.503Z,9.76
2023-05-05T04:50:08.262Z,9.82
2023-05-05T04:52:36.318Z,9.90
2023-05-05T04:55:04.835Z,9.97
2023-05-05T04:57:32.607Z,10.06
2023-05-05T05:00:01.048Z,10.16
2023-05-05T05:02:28.802Z,10.27
2023-05-05T05:04:56.645Z,10.39
2023-05-05T05:07:25.126Z,10.52
2023-05-05T05:09:52.891Z,10.64
2023-05-05T05:12:21.263Z,10.75
2023-05-05T05:14:49.024Z,10.87
2023-05-05T05:17:16.910Z,11.00
2023-05-05T05:19:44.764Z,11.15
2023-05-05T05:22:12.521Z,11.30
2023-05-05T05:24:40.288Z,11.45
2023-05-05T05:27:10.149Z,11.56
2023-05-05T05:29:38.267Z,11.64
2023-05-05T05:32:06.190Z,11.71
2023-05-05T05:34:34.101Z,11.76
2023-05-05T05:37:02.082Z,11.79
2023-05-05T05:39:29.842Z,11.84
2023-05-05T05:41:57.574Z,11.90
2023-05-05T05:44:25.387Z,11.97
2023-05-05T05:46:53.235Z,12.03
2023-05-05T05:49:21.104Z,12.09
2023-05-05T05:51:48.862Z,12.20
2023-05-05T05:54:16.727Z,12.31
2023-05-05T05:56:44.510Z,12.43
2023-05-05T05:59:12.663Z,12.54
2023-05-05T06:01:40.638Z,12.63
2023-05-05T06:04:08.541Z,12.68
2023-05-05T06:06:36.463Z,12.71
2023-05-05T06:09:04.222Z,12.78
2023-05-05T06:11:32.195Z,12.87
2023-05-05T06:14:00.065Z,12.96
2023-05-05T06:16:28.069Z,13.09
2023-05-05T06:18:55.995Z,13.24
2023-05-05T06:21:23.860Z,13.38
2023-05-05T06:23:51.626Z,13.48
2023-05-05T06:26:19.389Z,13.59
2023-05-05T06:28:47.120Z,13.66
2023-05-05T06:31:15.072Z,13.71
2023-05-05T06:33:43.116Z,13.80
2023-05-05T06:36:11.023Z,13.87
2023-05-05T06:38:39.339Z,13.95
2023-05-05T06:41:07.703Z,14.05
2023-05-05T06:43:36.213Z,14.15
2023-05-05T06:46:04.402Z,14.21
2023-05-05T06:48:32.600Z,14.28
2023-05-05T06:51:00.749Z,14.34
2023-05-05T06:53:29.171Z,14.41
2023-05-05T06:55:57.335Z,14.51
2023-05-05T06:58:25.667Z,14.63
2023-05-05T07:00:54.527Z,14.74
2023-05-05T07:03:22.687Z,14.82
2023-05-05T07:05:51.862Z,14.86
2023-05-05T07:08:20.240Z,14.87
2023-05-05T07:10:48.503Z,14.85
2023-05-05T07:13:18.157Z,14.88
2023-05-05T07:15:47.129Z,14.94
2023-05-05T07:18:17.278Z,14.98
2023-05-05T07:20:45.318Z,14.97
2023-05-05T07:23:13.708Z,14.93
2023-05-05T07:25:41.904Z,14.95
2023-05-05T07:28:11.019Z,14.99
2023-05-05T07:30:39.304Z,15.03
2023-05-05T07:33:07.615Z,15.05
2023-05-05T07:35:35.988Z,15.10
2023-05-05T07:38:04.102Z,15.14
2023-05-05T07:40:34.003Z,15.19
2023-05-05T07:43:02.337Z,15.24
2023-05-05T07:45:30.463Z,15.20
2023-05-05T07:47:58.710Z,15.22
2023-05-05T07:50:27.233Z,15.29
2023-05-05T07:53:02.519Z,15.33
2023-05-05T07:55:41.569Z,15.41
2023-05-05T07:58:11.421Z,15.51
2023-05-05T08:00:40.007Z,15.64
2023-05-05T08:03:11.376Z,15.76
2023-05-05T08:05:40.914Z,15.89
2023-05-05T08:08:09.248Z,16.03
2023-05-05T08:10:37.241Z,16.14
2023-05-05T08:13:05.447Z,16.28
2023-05-05T08:15:33.635Z,16.43
2023-05-05T08:18:02.047Z,16.53
2023-05-05T08:20:30.316Z,16.62
2023-05-05T08:22:58.584Z,16.71
2023-05-05T08:25:27.199Z,16.75
2023-05-05T08:27:55.364Z,16.78
2023-05-05T08:30:23.409Z,16.85
2023-05-05T08:32:52.013Z,16.92
2023-05-05T08:35:20.405Z,16.98
2023-05-05T08:37:48.584Z,16.97
2023-05-05T08:40:17.167Z,17.03
2023-05-05T08:42:46.661Z,17.08
2023-05-05T08:45:14.982Z,17.06
2023-05-05T08:47:44.421Z,17.06
2023-05-05T08:50:13.407Z,17.12
2023-05-05T08:52:46.183Z,17.13
2023-05-05T08:55:28.231Z,17.08
2023-05-05T08:57:58.278Z,17.09
2023-05-05T09:00:28.381Z,17.12
2023-05-05T09:02:58.573Z,17.15
2023-05-05T09:05:27.585Z,17.19
2023-05-05T09:07:56.394Z,17.26
2023-05-05T09:10:26.381Z,17.35
2023-05-05T09:12:54.850Z,17.43
2023-05-05T09:15:23.128Z,17.51
2023-05-05T09:17:51.751Z,17.54
2023-05-05T09:20:19.842Z,17.59
2023-05-05T09:22:48.484Z,17.69
2023-05-05T09:25:18.400Z,17.76
2023-05-05T09:27:49.119Z,17.83
2023-05-05T09:30:24.773Z,17.89
2023-05-05T09:32:55.763Z,17.85
2023-05-05T09:35:24.327Z,17.61
2023-05-05T09:37:52.482Z,17.54
2023-05-05T09:40:22.432Z,17.57
2023-05-05T09:43:01.877Z,17.58
2023-05-05T09:45:30.102Z,17.60
2023-05-05T09:48:00.307Z,17.64
2023-05-05T09:50:31.200Z,17.70
2023-05-05T09:53:02.186Z,17.75
2023-05-05T09:55:33.640Z,17.81
2023-05-05T09:58:23.991Z,17.87
2023-05-05T10:00:52.813Z,17.86
2023-05-05T10:03:21.662Z,17.80
2023-05-05T10:05:57.995Z,17.82
2023-05-05T10:08:31.705Z,17.80
2023-05-05T10:11:06.719Z,17.86
2023-05-05T10:13:42.270Z,17.95
2023-05-05T10:16:13.398Z,18.05
2023-05-05T10:18:46.718Z,18.12
2023-05-05T10:21:21.615Z,18.20
2023-05-05T10:23:58.739Z,18.23
2023-05-05T10:26:27.952Z,18.27
2023-05-05T10:28:57.649Z,18.21
2023-05-05T10:32:08.792Z,18.11
2023-05-05T10:35:09.523Z,18.05
2023-05-05T10:37:38.684Z,18.04
2023-05-05T10:40:09.750Z,18.12
2023-05-05T10:42:42.757Z,18.17
2023-05-05T10:45:11.653Z,18.19
2023-05-05T10:47:40.940Z,18.21
2023-05-05T10:50:28.014Z,18.23
2023-05-05T10:53:24.313Z,18.17
2023-05-05T10:56:16.906Z,18.19
2023-05-05T10:58:59.170Z,18.22
2023-05-05T11:01:32.521Z,18.26
2023-05-05T11:04:20.467Z,18.30
2023-05-05T11:07:12.693Z,18.34
2023-05-05T11:09:55.959Z,18.40
2023-05-05T11:12:24.500Z,18.48
2023-05-05T11:15:24.661Z,18.53
2023-05-05T11:17:56.801Z,18.47
2023-05-05T11:20:37.786Z,18.42
2023-05-05T11:23:05.781Z,18.35
2023-05-05T11:25:37.892Z,18.38
2023-05-05T11:28:16.753Z,18.56
2023-05-05T11:30:58.083Z,18.74
2023-05-05T11:33:28.618Z,18.93
2023-05-05T11:36:08.919Z,19.09
2023-05-05T11:38:55.919Z,19.28
2023-05-05T11:41:33.187Z,19.40
2023-05-05T11:44:14.328Z,19.55
2023-05-05T11:46:51.731Z,19.64
2023-05-05T11:49:33.751Z,19.71
2023-05-05T11:52:13.331Z,19.69
2023-05-05T11:54:50.757Z,19.80
2023-05-05T11:57:21.934Z,19.92
2023-05-05T12:00:05.457Z,19.90
2023-05-05T12:02:34.439Z,19.76
2023-05-05T12:05:03.400Z,19.62
2023-05-05T12:07:33.495Z,19.52
2023-05-05T12:10:01.964Z,19.46
2023-05-05T12:12:38.855Z,19.41
2023-05-05T12:15:08.192Z,19.27
2023-05-05T12:17:43.021Z,19.21
2023-05-05T12:20:12.911Z,19.18
2023-05-05T12:22:41.381Z,19.17
2023-05-05T12:25:10.185Z,19.20
2023-05-05T12:27:39.259Z,19.20
2023-05-05T12:30:17.008Z,19.21
2023-05-05T12:32:46.329Z,19.09
2023-05-05T12:35:16.198Z,19.02
2023-05-05T12:37:44.973Z,19.02
2023-05-05T12:40:45.990Z,19.04
2023-05-05T12:43:32.429Z,19.10
2023-05-05T12:46:01.476Z,19.18
2023-05-05T12:48:30.232Z,19.20
2023-05-05T12:51:23.478Z,19.14
2023-05-05T12:54:11.515Z,19.10
2023-05-05T12:56:44.971Z,19.08
2023-05-05T12:59:22.371Z,18.93
2023-05-05T13:01:55.457Z,18.80
2023-05-05T13:04:28.289Z,18.66
2023-05-05T13:07:14.375Z,18.60
2023-05-05T13:09:43.144Z,18.53
2023-05-05T13:12:12.737Z,18.47
2023-05-05T13:14:42.074Z,18.38
2023-05-05T13:17:11.594Z,18.31
2023-05-05T13:19:46.732Z,18.30
2023-05-05T13:22:14.887Z,18.34
2023-05-05T13:24:51.437Z,18.36
2023-05-05T13:27:20.866Z,18.36
2023-05-05T13:29:49.535Z,18.42
2023-05-05T13:32:17.847Z,18.52
2023-05-05T13:34:46.342Z,18.65
2023-05-05T13:37:14.795Z,18.76
2023-05-05T13:39:44.012Z,18.73
2023-05-05T13:42:12.379Z,18.61
2023-05-05T13:44:41.136Z,18.41
2023-05-05T13:47:09.653Z,18.18
2023-05-05T13:49:37.941Z,18.00
2023-05-05T13:52:06.293Z,17.85
2023-05-05T13:54:34.639Z,17.73
2023-05-05T13:57:03.690Z,17.59
2023-05-05T13:59:31.774Z,17.47
2023-05-05T14:02:01.405Z,17.39
2023-05-05T14:04:29.905Z,17.33
2023-05-05T14:06:58.824Z,17.30
2023-05-05T14:09:27.067Z,17.34
2023-05-05T14:11:55.341Z,17.40
2023-05-05T14:14:23.322Z,17.45
2023-05-05T14:16:51.726Z,17.50
2023-05-05T14:19:19.904Z,17.55
2023-05-05T14:21:48.006Z,17.57
2023-05-05T14:24:16.287Z,17.58
2023-05-05T14:26:44.450Z,17.61
2023-05-05T14:29:12.801Z,17.63
2023-05-05T14:31:41.048Z,17.58
2023-05-05T14:34:09.101Z,17.57
2023-05-05T14:36:37.155Z,17.56
2023-05-05T14:39:05.416Z,17.51
2023-05-05T14:41:33.800Z,17.50
2023-05-05T14:44:02.197Z,17.50
2023-05-05T14:46:31.495Z,17.50
2023-05-05T14:49:00.149Z,17.46
2023-05-05T14:51:28.660Z,17.38
2023-05-05T14:53:56.623Z,17.28
2023-05-05T14:56:26.871Z,17.23
2023-05-05T14:58:55.140Z,17.20
2023-05-05T15:01:25.357Z,17.15
2023-05-05T15:03:54.349Z,17.11
2023-05-05T15:06:22.619Z,17.18
2023-05-05T15:08:50.679Z,17.23
2023-05-05T15:11:18.995Z,17.23
2023-05-05T15:13:47.118Z,17.20
2023-05-05T15:16:15.212Z,17.14
2023-05-05T15:18:43.600Z,17.01
2023-05-05T15:21:12.063Z,16.90
2023-05-05T15:23:40.054Z,16.82
2023-05-05T15:26:08.202Z,16.73
2023-05-05T15:28:36.611Z,16.67
2023-05-05T15:31:06.210Z,16.65
2023-05-05T15:33:34.842Z,16.62
2023-05-05T15:36:03.410Z,16.58
2023-05-05T15:38:31.680Z,16.51
2023-05-05T15:41:00.248Z,16.41
2023-05-05T15:43:28.611Z,16.41
2023-05-05T15:45:56.869Z,16.48
2023-05-05T15:48:24.967Z,16.54
2023-05-05T15:50:53.118Z,16.57
2023-05-05T15:53:21.825Z,16.59
2023-05-05T15:55:50.088Z,16.55
2023-05-05T15:58:18.284Z,16.47
2023-05-05T16:00:46.827Z,16.39
2023-05-05T16:03:15.326Z,16.42
2023-05-05T16:05:43.630Z,16.42
2023-05-05T16:08:11.751Z,16.42
2023-05-05T16:10:39.920Z,16.51
2023-05-05T16:13:08.190Z,16.56
2023-05-05T16:15:36.426Z,16.52
2023-05-05T16:18:04.729Z,16.51
2023-05-05T16:20:33.051Z,16.53
2023-05-05T16:23:01.091Z,16.54
2023-05-05T16:25:29.290Z,16.49
2023-05-05T16:27:57.927Z,16.42
2023-05-05T16:30:26.354Z,16.37
2023-05-05T16:32:54.889Z,16.30
2023-05-05T16:35:23.240Z,16.19
2023-05-05T16:37:52.765Z,16.09
2023-05-05T16:40:20.857Z,15.98
2023-05-05T16:42:48.959Z,15.94
2023-05-05T16:45:17.313Z,15.90
2023-05-05T16:47:45.713Z,15.87
2023-05-05T16:50:13.912Z,15.85
2023-05-05T16:52:42.107Z,15.82
2023-05-05T16:55:10.606Z,15.76
2023-05-05T16:57:38.930Z,15.68
2023-05-05T17:00:08.078Z,15.58
2023-05-05T17:02:36.772Z,15.45
2023-05-05T17:05:06.385Z,15.31
2023-05-05T17:07:34.695Z,15.16
2023-05-05T17:10:02.852Z,15.02
2023-05-05T17:12:31.137Z,14.89
2023-05-05T17:14:59.903Z,14.79
2023-05-05T17:17:28.467Z,14.69
2023-05-05T17:19:56.628Z,14.58
2023-05-05T17:22:24.624Z,14.49
2023-05-05T17:24:52.733Z,14.39
2023-05-05T17:27:20.812Z,14.31
2023-05-05T17:29:48.884Z,14.24
2023-05-05T17:32:17.918Z,14.16
2023-05-05T17:34:45.982Z,14.09
2023-05-05T17:37:14.017Z,14.02
2023-05-05T17:39:42.220Z,13.97
2023-05-05T17:42:10.373Z,13.89
2023-05-05T17:44:38.562Z,13.84
2023-05-05T17:47:07.932Z,13.76
2023-05-05T17:49:36.142Z,13.70
2023-05-05T17:52:04.400Z,13.63
2023-05-05T17:54:32.575Z,13.56
2023-05-05T17:57:00.731Z,13.48
2023-05-05T17:59:28.794Z,13.41
2023-05-05T18:01:56.908Z,13.33
2023-05-05T18:04:25.631Z,13.24
2023-05-05T18:06:57.547Z,13.15
2023-05-05T18:09:27.139Z,13.07
2023-05-05T18:11:55.911Z,12.98
2023-05-05T18:14:24.746Z,12.90
2023-05-05T18:16:53.548Z,12.81
2023-05-05T18:19:22.915Z,12.73
2023-05-05T18:21:52.831Z,12.66
2023-05-05T18:24:21.363Z,12.59
2023-05-05T18:26:51.312Z,12.52
2023-05-05T18:29:21.802Z,12.46
2023-05-05T18:31:53.338Z,12.40
2023-05-05T18:34:22.647Z,12.34
2023-05-05T18:36:51.645Z,12.28
2023-05-05T18:39:20.419Z,12.21
2023-05-05T18:41:48.648Z,12.17
2023-05-05T18:44:16.834Z,12.13
2023-05-05T18:46:48.023Z,12.08
2023-05-05T18:49:18.705Z,12.03
2023-05-05T18:51:49.579Z,11.98
2023-05-05T18:54:17.467Z,11.93
2023-05-05T18:56:45.373Z,11.87
2023-05-05T18:59:13.287Z,11.83
2023-05-05T19:01:43.024Z,11.79
2023-05-05T19:04:26.722Z,11.74
2023-05-05T19:06:58.805Z,11.70
2023-05-05T19:09:26.641Z,11.66
2023-05-05T19:11:54.468Z,11.63
2023-05-05T19:14:23.239Z,11.59
2023-05-05T19:16:51.672Z,11.57
2023-05-05T19:19:19.492Z,11.53
2023-05-05T19:21:47.264Z,11.49
2023-05-05T19:24:15.128Z,11.47
2023-05-05T19:26:44.436Z,11.46
2023-05-05T19:29:12.493Z,11.44
2023-05-05T19:31:40.542Z,11.41
2023-05-05T19:34:08.570Z,11.40
2023-05-05T19:36:36.514Z,11.40
2023-05-05T19:39:05.164Z,11.37
2023-05-05T19:41:35.427Z,11.34
2023-05-05T19:44:03.491Z,11.32
2023-05-05T19:46:31.501Z,11.30
2023-05-05T19:48:59.327Z,11.27
2023-05-05T19:51:27.498Z,11.25
2023-05-05T19:53:55.461Z,11.23
2023-05-05T19:56:24.135Z,11.21
2023-05-05T19:58:57.608Z,11.18
2023-05-05T20:01:26.941Z,11.15
2023-05-05T20:03:56.931Z,11.13
2023-05-05T20:06:24.972Z,11.11
2023-05-05T20:08:54.771Z,11.10
2023-05-05T20:11:26.188Z,11.09
2023-05-05T20:13:54.473Z,11.08
2023-05-05T20:16:22.592Z,11.07
2023-05-05T20:18:51.137Z,11.07
2023-05-05T20:21:19.385Z,11.07
2023-05-05T20:23:47.455Z,11.09
2023-05-05T20:26:15.332Z,11.08
2023-05-05T20:28:45.326Z,11.07
2023-05-05T20:31:14.827Z,11.08
2023-05-05T20:33:42.814Z,11.08
2023-05-05T20:36:11.376Z,11.09
2023-05-05T20:38:39.272Z,11.09
2023-05-05T20:41:07.135Z,11.09
2023-05-05T20:43:36.381Z,11.08
2023-05-05T20:46:04.086Z,11.07
2023-05-05T20:48:32.060Z,11.06
2023-05-05T20:51:04.074Z,11.04
2023-05-05T20:53:32.413Z,11.02
2023-05-05T20:56:00.266Z,11.00
2023-05-05T20:58:28.131Z,10.99
2023-05-05T21:00:56.276Z,10.97
2023-05-05T21:03:24.227Z,10.94
2023-05-05T21:05:52.239Z,10.92
2023-05-05T21:08:20.317Z,10.89
2023-05-05T21:10:48.077Z,10.87
2023-05-05T21:13:16.037Z,10.85
2023-05-05T21:15:43.912Z,10.81
2023-05-05T21:18:11.678Z,10.78
2023-05-05T21:20:39.432Z,10.76
2023-05-05T21:23:07.205Z,10.75
2023-05-05T21:25:34.973Z,10.72
2023-05-05T21:28:02.819Z,10.70
2023-05-05T21:30:30.787Z,10.69
2023-05-05T21:32:58.615Z,10.67
2023-05-05T21:35:26.521Z,10.67
2023-05-05T21:37:54.285Z,10.65
2023-05-05T21:40:22.151Z,10.64
2023-05-05T21:42:50.152Z,10.63
2023-05-05T21:45:18.313Z,10.61
2023-05-05T21:47:46.309Z,10.58
2023-05-05T21:50:14.251Z,10.55
2023-05-05T21:52:42.216Z,10.52
2023-05-05T21:55:11.140Z,10.49
2023-05-05T21:57:38.980Z,10.47
2023-05-05T22:00:09.015Z,10.46
2023-05-05T22:02:37.137Z,10.43
2023-05-05T22:05:05.975Z,10.40
2023-05-05T22:07:34.018Z,10.36
2023-05-05T22:10:03.856Z,10.35
2023-05-05T22:12:31.725Z,10.34
2023-05-05T22:14:59.555Z,10.32
2023-05-05T22:17:27.451Z,10.29
2023-05-05T22:19:55.294Z,10.26
2023-05-05T22:22:26.451Z,10.23
2023-05-05T22:24:54.292Z,10.20
2023-05-05T22:27:22.160Z,10.17
2023-05-05T22:29:50.031Z,10.12
2023-05-05T22:32:17.790Z,10.09
2023-05-05T22:34:45.656Z,10.05
2023-05-05T22:37:14.367Z,10.02
2023-05-05T22:39:42.258Z,9.97
2023-05-05T22:42:10.175Z,9.93
2023-05-05T22:44:38.863Z,9.88
2023-05-05T22:47:07.209Z,9.85
2023-05-05T22:49:35.260Z,9.83
2023-05-05T22:52:03.678Z,9.82
2023-05-05T22:54:31.549Z,9.81
2023-05-05T22:56:59.530Z,9.79
2023-05-05T22:59:27.280Z,9.78
2023-05-05T23:01:55.041Z,9.76
2023-05-05T23:04:22.845Z,9.74
2023-05-05T23:06:50.672Z,9.71
2023-05-05T23:09:18.440Z,9.70
2023-05-05T23:11:46.195Z,9.67
2023-05-05T23:14:13.963Z,9.66
2023-05-05T23:16:41.753Z,9.63
2023-05-05T23:19:09.593Z,9.60
2023-05-05T23:21:49.332Z,9.58
2023-05-05T23:24:21.948Z,9.55
2023-05-05T23:26:49.771Z,9.53
2023-05-05T23:29:18.454Z,9.51
2023-05-05T23:31:47.056Z,9.49
2023-05-05T23:34:15.117Z,9.48
2023-05-05T23:36:43.345Z,9.45
2023-05-05T23:39:11.559Z,9.44
2023-05-05T23:41:39.448Z,9.43
2023-05-05T23:44:07.294Z,9.41
2023-05-05T23:46:35.134Z,9.39
2023-05-05T23:49:03.131Z,9.36
2023-05-05T23:51:31.201Z,9.33
2023-05-05T23:53:59.062Z,9.30
2023-05-05T23:56:27.030Z,9.28
2023-05-05T23:58:54.852Z,9.26
